GOL106 SBFL-SBRJ
Flight info
| Callsign | GOL106 |
|---|---|
| Flight time | N/A |
| Altitude | 39000 |
| Route | PUNOD4A EGDED UN857 AKNUB ROPAS1A |
| Aircraft | B737/M-SDE2E3FGHIRWXY/LB1 |
Departure
| Time | 2026-04-28 11:07 |
|---|---|
| Airport | Hercílio Luz International Airport (SBFL) |
Arrival
| Time | N/A |
|---|---|
| Airport | Santos Dumont Airport (SBRJ) |
| Time | Latitude | Longitude | Altitude | Speed | Heading |
|---|---|---|---|---|---|
| 2026-04-28 11:00 | -27.67261 | -48.54459 | 31 ft | 0 kts | 270° |
| 2026-04-28 11:01 | -27.67261 | -48.54465 | 29 ft | 2 kts | 270° |
| 2026-04-28 11:01 | -27.67258 | -48.54485 | 30 ft | 4 kts | 285° |
| 2026-04-28 11:02 | -27.67243 | -48.54518 | 31 ft | 6 kts | 301° |
| 2026-04-28 11:02 | -27.67218 | -48.54564 | 28 ft | 8 kts | 301° |
| 2026-04-28 11:02 | -27.67180 | -48.54612 | 29 ft | 8 kts | 329° |
| 2026-04-28 11:02 | -27.67126 | -48.54617 | 31 ft | 8 kts | 11° |
| 2026-04-28 11:03 | -27.67076 | -48.54593 | 30 ft | 8 kts | 9° |
| 2026-04-28 11:03 | -27.67033 | -48.54621 | 29 ft | 7 kts | 306° |
| 2026-04-28 11:03 | -27.67004 | -48.54673 | 29 ft | 9 kts | 301° |
| 2026-04-28 11:03 | -27.66968 | -48.54740 | 31 ft | 11 kts | 301° |
| 2026-04-28 11:04 | -27.66922 | -48.54825 | 31 ft | 14 kts | 301° |
| 2026-04-28 11:04 | -27.66873 | -48.54917 | 30 ft | 14 kts | 301° |
| 2026-04-28 11:04 | -27.66826 | -48.55006 | 31 ft | 13 kts | 301° |
| 2026-04-28 11:04 | -27.66779 | -48.55092 | 27 ft | 13 kts | 301° |
| 2026-04-28 11:05 | -27.66734 | -48.55175 | 29 ft | 12 kts | 301° |
| 2026-04-28 11:05 | -27.66666 | -48.55220 | 27 ft | 12 kts | 5° |
| 2026-04-28 11:05 | -27.66587 | -48.55198 | 27 ft | 12 kts | 17° |
| 2026-04-28 11:05 | -27.66572 | -48.55118 | 27 ft | 12 kts | 112° |
| 2026-04-28 11:06 | -27.66593 | -48.55078 | 27 ft | 0 kts | 121° |
| 2026-04-28 11:06 | -27.66595 | -48.55075 | 26 ft | 3 kts | 121° |
| 2026-04-28 11:06 | -27.66700 | -48.54882 | 28 ft | 65 kts | 121° |
| 2026-04-28 11:07 | -27.67058 | -48.54220 | 26 ft | 129 kts | 121° |
| 2026-04-28 11:07 | -27.67584 | -48.53236 | 321 ft | 150 kts | 121° |
| 2026-04-28 11:07 | -27.68098 | -48.52228 | 962 ft | 149 kts | 121° |
| 2026-04-28 11:07 | -27.68585 | -48.51252 | 1712 ft | 145 kts | 121° |
| 2026-04-28 11:08 | -27.69082 | -48.50247 | 2436 ft | 146 kts | 120° |
| 2026-04-28 11:08 | -27.69600 | -48.49230 | 3097 ft | 155 kts | 120° |
| 2026-04-28 11:08 | -27.69941 | -48.48002 | 3463 ft | 183 kts | 81° |
| 2026-04-28 11:08 | -27.69280 | -48.46703 | 3785 ft | 209 kts | 33° |
| 2026-04-28 11:09 | -27.67896 | -48.46171 | 4395 ft | 215 kts | 9° |
| 2026-04-28 11:09 | -27.66446 | -48.45740 | 5347 ft | 216 kts | 13° |
| 2026-04-28 11:09 | -27.65012 | -48.45135 | 5795 ft | 223 kts | 18° |
| 2026-04-28 11:09 | -27.63588 | -48.44385 | 5975 ft | 228 kts | 22° |
| 2026-04-28 11:10 | -27.62189 | -48.43532 | 5995 ft | 229 kts | 25° |
| 2026-04-28 11:10 | -27.60820 | -48.42602 | 6004 ft | 230 kts | 27° |
| 2026-04-28 11:10 | -27.59473 | -48.41625 | 6010 ft | 231 kts | 28° |
| 2026-04-28 11:10 | -27.58136 | -48.40622 | 6013 ft | 231 kts | 29° |
| 2026-04-28 11:11 | -27.56804 | -48.39607 | 6012 ft | 231 kts | 29° |
| 2026-04-28 11:11 | -27.55473 | -48.38587 | 6009 ft | 231 kts | 29° |
| 2026-04-28 11:11 | -27.54209 | -48.37490 | 6001 ft | 237 kts | 43° |
| 2026-04-28 11:11 | -27.53151 | -48.35906 | 6050 ft | 270 kts | 51° |
| 2026-04-28 11:12 | -27.52052 | -48.34091 | 6323 ft | 287 kts | 52° |
| 2026-04-28 11:12 | -27.50938 | -48.32218 | 7275 ft | 290 kts | 52° |
| 2026-04-28 11:12 | -27.49808 | -48.30323 | 8269 ft | 293 kts | 51° |
| 2026-04-28 11:12 | -27.48654 | -48.28400 | 9254 ft | 299 kts | 51° |
| 2026-04-28 11:13 | -27.47470 | -48.26438 | 10215 ft | 306 kts | 51° |
| 2026-04-28 11:13 | -27.46234 | -48.24405 | 10802 ft | 326 kts | 51° |
| 2026-04-28 11:13 | -27.44892 | -48.22210 | 11156 ft | 351 kts | 51° |
| 2026-04-28 11:13 | -27.43509 | -48.19943 | 11912 ft | 359 kts | 51° |
| 2026-04-28 11:14 | -27.42084 | -48.17605 | 12818 ft | 363 kts | 51° |
| 2026-04-28 11:14 | -27.40638 | -48.15233 | 13690 ft | 370 kts | 50° |
| 2026-04-28 11:14 | -27.39168 | -48.12827 | 14476 ft | 376 kts | 50° |
| 2026-04-28 11:14 | -27.37672 | -48.10381 | 15322 ft | 380 kts | 50° |
| 2026-04-28 11:15 | -27.36179 | -48.07942 | 16156 ft | 385 kts | 50° |
| 2026-04-28 11:15 | -27.34642 | -48.05434 | 16991 ft | 391 kts | 50° |
| 2026-04-28 11:15 | -27.33086 | -48.02898 | 17789 ft | 397 kts | 50° |
| 2026-04-28 11:15 | -27.31508 | -48.00327 | 18572 ft | 402 kts | 50° |
| 2026-04-28 11:16 | -27.29907 | -47.97720 | 19248 ft | 408 kts | 50° |
| 2026-04-28 11:16 | -27.28283 | -47.95077 | 19915 ft | 413 kts | 49° |
| 2026-04-28 11:16 | -27.26634 | -47.92396 | 20577 ft | 419 kts | 49° |
| 2026-04-28 11:16 | -27.24965 | -47.89684 | 21243 ft | 424 kts | 49° |
| 2026-04-28 11:17 | -27.23277 | -47.86941 | 21884 ft | 430 kts | 49° |
| 2026-04-28 11:17 | -27.21565 | -47.84160 | 22515 ft | 435 kts | 48° |
| 2026-04-28 11:17 | -27.19831 | -47.81347 | 23138 ft | 440 kts | 48° |
| 2026-04-28 11:17 | -27.18079 | -47.78502 | 23738 ft | 445 kts | 48° |
| 2026-04-28 11:18 | -27.16329 | -47.75664 | 24251 ft | 449 kts | 48° |
| 2026-04-28 11:18 | -27.14542 | -47.72770 | 24757 ft | 453 kts | 47° |
| 2026-04-28 11:18 | -27.12735 | -47.69862 | 25299 ft | 455 kts | 47° |
| 2026-04-28 11:18 | -27.10886 | -47.66967 | 25837 ft | 458 kts | 46° |
| 2026-04-28 11:19 | -27.09006 | -47.64066 | 26347 ft | 461 kts | 46° |
| 2026-04-28 11:19 | -27.07111 | -47.61151 | 26856 ft | 464 kts | 46° |
| 2026-04-28 11:19 | -27.05201 | -47.58210 | 27349 ft | 468 kts | 46° |
| 2026-04-28 11:19 | -27.03279 | -47.55243 | 27840 ft | 471 kts | 46° |
| 2026-04-28 11:20 | -27.01347 | -47.52256 | 28313 ft | 474 kts | 46° |
| 2026-04-28 11:20 | -26.99407 | -47.49253 | 28776 ft | 478 kts | 46° |
| 2026-04-28 11:20 | -26.97450 | -47.46224 | 29235 ft | 481 kts | 46° |
| 2026-04-28 11:20 | -26.95504 | -47.43213 | 29686 ft | 484 kts | 45° |
| 2026-04-28 11:21 | -26.93522 | -47.40149 | 30119 ft | 487 kts | 45° |
| 2026-04-28 11:21 | -26.91528 | -47.37069 | 30490 ft | 490 kts | 45° |
| 2026-04-28 11:21 | -26.89514 | -47.33962 | 30838 ft | 493 kts | 45° |
| 2026-04-28 11:21 | -26.87422 | -47.30927 | 31183 ft | 490 kts | 40° |
| 2026-04-28 11:22 | -26.85134 | -47.28113 | 31526 ft | 488 kts | 37° |
| 2026-04-28 11:22 | -26.82753 | -47.25396 | 31853 ft | 489 kts | 36° |
| 2026-04-28 11:22 | -26.80348 | -47.22678 | 32165 ft | 492 kts | 37° |
| 2026-04-28 11:22 | -26.77953 | -47.19918 | 32497 ft | 495 kts | 37° |
| 2026-04-28 11:23 | -26.75581 | -47.17120 | 32904 ft | 496 kts | 38° |
| 2026-04-28 11:23 | -26.74019 | -47.15259 | 33213 ft | 495 kts | 38° |
| 2026-04-28 11:23 | -26.70871 | -47.11502 | 33834 ft | 494 kts | 38° |
| 2026-04-28 11:23 | -26.69320 | -47.09644 | 34101 ft | 494 kts | 38° |
| 2026-04-28 11:24 | -26.66977 | -47.06834 | 34436 ft | 494 kts | 38° |
| 2026-04-28 11:24 | -26.64634 | -47.04025 | 34771 ft | 494 kts | 38° |
| 2026-04-28 11:24 | -26.61526 | -47.00304 | 35245 ft | 493 kts | 38° |
| 2026-04-28 11:24 | -26.59186 | -46.97513 | 35587 ft | 492 kts | 38° |
| 2026-04-28 11:25 | -26.57594 | -46.95631 | 35802 ft | 491 kts | 38° |
| 2026-04-28 11:25 | -26.55269 | -46.92902 | 36111 ft | 491 kts | 37° |
| 2026-04-28 11:25 | -26.52116 | -46.89214 | 36551 ft | 490 kts | 37° |
| 2026-04-28 11:25 | -26.50557 | -46.87389 | 36766 ft | 490 kts | 37° |
| 2026-04-28 11:26 | -26.48206 | -46.84635 | 37086 ft | 489 kts | 37° |
| 2026-04-28 11:26 | -26.45068 | -46.80958 | 37498 ft | 489 kts | 37° |
| 2026-04-28 11:26 | -26.43515 | -46.79137 | 37693 ft | 489 kts | 37° |
| 2026-04-28 11:26 | -26.41171 | -46.76392 | 38010 ft | 488 kts | 37° |
| 2026-04-28 11:27 | -26.38830 | -46.73651 | 38335 ft | 487 kts | 37° |
| 2026-04-28 11:27 | -26.36496 | -46.70922 | 38670 ft | 486 kts | 37° |
| 2026-04-28 11:27 | -26.34160 | -46.68191 | 38943 ft | 485 kts | 37° |
| 2026-04-28 11:27 | -26.31857 | -46.65502 | 39126 ft | 486 kts | 37° |
| 2026-04-28 11:28 | -26.29516 | -46.62771 | 39105 ft | 487 kts | 37° |
| 2026-04-28 11:28 | -26.24844 | -46.57320 | 39118 ft | 485 kts | 37° |
| 2026-04-28 11:29 | -26.20190 | -46.51891 | 39127 ft | 483 kts | 37° |
| 2026-04-28 11:29 | -26.15552 | -46.46492 | 39125 ft | 481 kts | 37° |
| 2026-04-28 11:30 | -26.10915 | -46.41101 | 39120 ft | 480 kts | 37° |
| 2026-04-28 11:30 | -26.03980 | -46.33053 | 39122 ft | 480 kts | 37° |
| 2026-04-28 11:31 | -25.99350 | -46.27688 | 39123 ft | 481 kts | 37° |
| 2026-04-28 11:31 | -25.94732 | -46.22344 | 39120 ft | 483 kts | 37° |
| 2026-04-28 11:32 | -25.90069 | -46.16951 | 39122 ft | 485 kts | 37° |
| 2026-04-28 11:32 | -25.85383 | -46.11539 | 39121 ft | 486 kts | 37° |
| 2026-04-28 11:33 | -25.80683 | -46.06117 | 39117 ft | 487 kts | 38° |
| 2026-04-28 11:33 | -25.75980 | -46.00697 | 39121 ft | 487 kts | 38° |
| 2026-04-28 11:34 | -25.71305 | -45.95315 | 39117 ft | 487 kts | 38° |
| 2026-04-28 11:34 | -25.66599 | -45.89905 | 39116 ft | 487 kts | 38° |
| 2026-04-28 11:35 | -25.61894 | -45.84507 | 39113 ft | 486 kts | 38° |
| 2026-04-28 11:35 | -25.57198 | -45.79128 | 39115 ft | 485 kts | 38° |
| 2026-04-28 11:36 | -25.52512 | -45.73765 | 39116 ft | 484 kts | 38° |
| 2026-04-28 11:36 | -25.47830 | -45.68412 | 39113 ft | 483 kts | 38° |
| 2026-04-28 11:37 | -25.43164 | -45.63083 | 39115 ft | 482 kts | 38° |
| 2026-04-28 11:37 | -25.38499 | -45.57762 | 39110 ft | 481 kts | 38° |
| 2026-04-28 11:38 | -25.33862 | -45.52480 | 39133 ft | 481 kts | 38° |
| 2026-04-28 11:38 | -25.29179 | -45.47154 | 39104 ft | 485 kts | 38° |
| 2026-04-28 11:39 | -25.24474 | -45.41806 | 39099 ft | 484 kts | 38° |
| 2026-04-28 11:39 | -25.19775 | -45.36468 | 39104 ft | 483 kts | 38° |
| 2026-04-28 11:40 | -25.15086 | -45.31150 | 39106 ft | 483 kts | 38° |
| 2026-04-28 11:40 | -25.10423 | -45.25869 | 39114 ft | 483 kts | 38° |
| 2026-04-28 11:41 | -25.05732 | -45.20562 | 39106 ft | 483 kts | 38° |
| 2026-04-28 11:41 | -25.01033 | -45.15253 | 39107 ft | 483 kts | 39° |
| 2026-04-28 11:42 | -24.96331 | -45.09945 | 39103 ft | 483 kts | 39° |
| 2026-04-28 11:42 | -24.91629 | -45.04644 | 39104 ft | 483 kts | 39° |
| 2026-04-28 11:43 | -24.86952 | -44.99377 | 39101 ft | 484 kts | 39° |
| 2026-04-28 11:43 | -24.82232 | -44.94069 | 39093 ft | 485 kts | 39° |
| 2026-04-28 11:44 | -24.77519 | -44.88772 | 39103 ft | 483 kts | 39° |
| 2026-04-28 11:44 | -24.72817 | -44.83495 | 39099 ft | 482 kts | 39° |
| 2026-04-28 11:45 | -24.68120 | -44.78230 | 39094 ft | 482 kts | 39° |
| 2026-04-28 11:45 | -24.63428 | -44.72976 | 39109 ft | 481 kts | 39° |
| 2026-04-28 11:46 | -24.58740 | -44.67732 | 39101 ft | 480 kts | 39° |
| 2026-04-28 11:46 | -24.54051 | -44.62492 | 39099 ft | 480 kts | 39° |
| 2026-04-28 11:47 | -24.49225 | -44.57471 | 39102 ft | 473 kts | 30° |
| 2026-04-28 11:47 | -24.43659 | -44.53919 | 39108 ft | 463 kts | 19° |
| 2026-04-28 11:48 | -24.37888 | -44.50787 | 39105 ft | 463 kts | 19° |
| 2026-04-28 11:48 | -24.32127 | -44.47625 | 39098 ft | 463 kts | 20° |
| 2026-04-28 11:49 | -24.29281 | -44.46038 | 39079 ft | 451 kts | 20° |
| 2026-04-28 11:49 | -24.26542 | -44.44499 | 39076 ft | 435 kts | 20° |
| 2026-04-28 11:49 | -24.23889 | -44.43007 | 39082 ft | 421 kts | 19° |
| 2026-04-28 11:49 | -24.21326 | -44.41569 | 39078 ft | 407 kts | 19° |
| 2026-04-28 11:50 | -24.18846 | -44.40182 | 39084 ft | 393 kts | 19° |